createdAt,value
2022-08-18T00:01:16.007Z,97727.78
2022-08-18T00:06:19.920Z,97718.03
2022-08-18T00:11:23.869Z,97721.50
2022-08-18T00:16:26.480Z,97709.31
2022-08-18T00:21:28.993Z,97701.47
2022-08-18T00:26:36.695Z,97705.97
2022-08-18T00:31:39.595Z,97707.06
2022-08-18T00:36:42.112Z,97705.88
2022-08-18T00:41:44.601Z,97697.53
2022-08-18T00:46:47.076Z,97692.19
2022-08-18T00:51:52.019Z,97694.56
2022-08-18T00:57:02.326Z,97680.59
2022-08-18T01:02:10.574Z,97673.88
2022-08-18T01:07:25.132Z,97662.56
2022-08-18T01:12:44.899Z,97668.38
2022-08-18T01:18:07.808Z,97664.38
2022-08-18T01:23:16.877Z,97665.88
2022-08-18T01:28:20.773Z,97654.09
2022-08-18T01:33:26.759Z,97635.66
2022-08-18T01:38:36.304Z,97633.72
2022-08-18T01:43:39.093Z,97632.94
2022-08-18T01:48:45.394Z,97617.63
2022-08-18T01:53:48.890Z,97605.81
2022-08-18T01:58:51.303Z,97595.22
2022-08-18T02:04:23.298Z,97598.75
2022-08-18T02:09:23.944Z,97601.97
2022-08-18T02:14:27.397Z,97597.75
2022-08-18T02:19:44.622Z,97607.72
2022-08-18T02:24:48.558Z,97602.97
2022-08-18T02:29:51.016Z,97611.38
2022-08-18T02:34:53.531Z,97601.06
2022-08-18T02:39:56.281Z,97601.53
2022-08-18T02:44:58.861Z,97598.06
2022-08-18T02:50:01.556Z,97593.59
2022-08-18T02:55:04.830Z,97598.88
2022-08-18T03:00:11.027Z,97597.63
2022-08-18T03:05:14.631Z,97602.13
2022-08-18T03:10:33.007Z,97590.97
2022-08-18T03:15:36.460Z,97589.94
2022-08-18T03:20:39.405Z,97590.00
2022-08-18T03:25:48.564Z,97584.38
2022-08-18T03:30:51.034Z,97573.91
2022-08-18T03:35:53.572Z,97592.78
2022-08-18T03:40:56.317Z,97576.94
2022-08-18T03:46:03.650Z,97574.88
2022-08-18T03:51:14.640Z,97578.38
2022-08-18T03:56:21.227Z,97570.84
2022-08-18T04:01:28.090Z,97572.59
2022-08-18T04:06:41.324Z,97566.84
2022-08-18T04:11:45.249Z,97572.72
2022-08-18T04:16:49.228Z,97587.22
2022-08-18T04:21:53.682Z,97579.22
2022-08-18T04:26:58.598Z,97593.56
2022-08-18T04:32:05.024Z,97594.75
2022-08-18T04:37:09.805Z,97589.06
2022-08-18T04:42:12.592Z,97585.41
2022-08-18T04:47:15.022Z,97590.75
2022-08-18T04:52:40.339Z,97605.75
2022-08-18T04:57:44.536Z,97614.75
2022-08-18T05:02:47.121Z,97626.34
2022-08-18T05:07:49.555Z,97629.97
2022-08-18T05:12:51.986Z,97621.41
2022-08-18T05:17:54.625Z,97611.31
2022-08-18T05:22:57.493Z,97609.22
2022-08-18T05:28:00.034Z,97611.00
2022-08-18T05:33:03.645Z,97610.53
2022-08-18T05:38:21.357Z,97598.69
2022-08-18T05:43:24.276Z,97597.09
2022-08-18T05:48:26.858Z,97603.66
2022-08-18T05:53:48.409Z,97597.88
2022-08-18T05:58:55.712Z,97593.16
2022-08-18T06:04:16.111Z,97606.00
2022-08-18T06:09:32.820Z,97612.66
2022-08-18T06:14:38.258Z,97617.66
2022-08-18T06:19:56.443Z,97612.34
2022-08-18T06:25:25.082Z,97643.53
2022-08-18T06:30:41.531Z,97632.13
2022-08-18T06:35:52.047Z,97639.38
2022-08-18T06:41:09.603Z,97625.56
2022-08-18T06:46:56.250Z,97624.03
2022-08-18T06:51:58.769Z,97602.72
2022-08-18T06:57:01.771Z,97607.06
2022-08-18T07:02:31.950Z,97610.53
2022-08-18T07:07:40.884Z,97618.13
2022-08-18T07:12:44.121Z,97632.91
2022-08-18T07:17:51.535Z,97642.22
2022-08-18T07:23:08.304Z,97656.78
2022-08-18T07:28:29.253Z,97661.03
2022-08-18T07:33:32.063Z,97671.00
2022-08-18T07:38:53.654Z,97674.31
2022-08-18T07:44:20.321Z,97689.63
2022-08-18T07:49:26.505Z,97680.59
2022-08-18T07:54:49.481Z,97675.94
2022-08-18T08:00:26.728Z,97679.16
2022-08-18T08:05:40.860Z,97686.09
2022-08-18T08:10:59.515Z,97678.66
2022-08-18T08:16:13.431Z,97684.47
2022-08-18T08:21:19.849Z,97664.38
2022-08-18T08:26:46.611Z,97646.00
2022-08-18T08:32:00.279Z,97648.03
2022-08-18T08:37:08.668Z,97640.38
2022-08-18T08:42:40.803Z,97641.13
2022-08-18T08:47:46.207Z,97632.03
2022-08-18T08:52:57.296Z,97635.25
2022-08-18T08:58:08.666Z,97619.22
2022-08-18T09:03:32.204Z,97649.44
2022-08-18T09:09:16.680Z,97633.78
2022-08-18T09:14:40.358Z,97612.63
2022-08-18T09:20:05.688Z,97593.13
2022-08-18T09:25:31.035Z,97592.38
2022-08-18T09:30:59.795Z,97595.97
2022-08-18T09:36:28.757Z,97608.91
2022-08-18T09:41:49.075Z,97623.91
2022-08-18T09:46:55.875Z,97615.44
2022-08-18T09:52:21.348Z,97627.50
2022-08-18T10:02:56.019Z,97640.00
2022-08-18T10:08:06.244Z,97639.53
2022-08-18T10:19:08.310Z,97606.13
2022-08-18T10:29:48.546Z,97591.09
2022-08-18T10:34:53.309Z,97574.91
2022-08-18T10:40:13.077Z,97536.84
2022-08-18T10:45:35.806Z,97535.16
2022-08-18T10:50:59.383Z,97564.91
2022-08-18T10:56:15.694Z,97546.88
2022-08-18T11:02:02.693Z,97533.44
2022-08-18T11:07:23.941Z,97526.63
2022-08-18T11:13:03.146Z,97538.25
2022-08-18T11:18:13.902Z,97541.56
2022-08-18T11:23:17.917Z,97525.69
2022-08-18T11:28:30.212Z,97537.16
2022-08-18T11:33:35.124Z,97534.34
2022-08-18T11:38:42.233Z,97538.22
2022-08-18T11:43:47.349Z,97530.66
2022-08-18T11:48:53.645Z,97533.03
2022-08-18T11:54:00.930Z,97511.50
2022-08-18T11:59:25.737Z,97505.75
2022-08-18T12:05:03.462Z,97502.22
2022-08-18T12:10:26.288Z,97490.97
2022-08-18T12:15:47.756Z,97495.50
2022-08-18T12:20:51.291Z,97494.94
2022-08-18T12:25:54.045Z,97484.06
2022-08-18T12:30:57.479Z,97488.97
2022-08-18T12:36:00.331Z,97476.72
2022-08-18T12:41:03.636Z,97472.16
2022-08-18T12:46:06.649Z,97482.78
2022-08-18T12:51:14.502Z,97466.44
2022-08-18T12:56:25.541Z,97453.09
2022-08-18T13:01:28.533Z,97432.38
2022-08-18T13:06:33.863Z,97437.38
2022-08-18T13:11:36.636Z,97429.28
2022-08-18T13:16:53.910Z,97407.44
2022-08-18T13:21:57.999Z,97394.94
2022-08-18T13:27:04.097Z,97415.06
2022-08-18T13:32:21.409Z,97406.53
2022-08-18T13:37:26.637Z,97411.00
2022-08-18T13:42:34.401Z,97421.13
2022-08-18T13:47:52.929Z,97418.44
2022-08-18T13:52:57.415Z,97405.97
2022-08-18T13:58:00.703Z,97397.50
2022-08-18T14:03:05.198Z,97387.72
2022-08-18T14:08:09.999Z,97386.28
2022-08-18T14:13:20.343Z,97387.56
2022-08-18T14:18:28.878Z,97401.13
2022-08-18T14:23:53.331Z,97392.22
2022-08-18T14:28:56.072Z,97388.78
2022-08-18T14:34:04.015Z,97385.94
2022-08-18T14:39:08.287Z,97396.78
2022-08-18T14:44:15.391Z,97402.94
2022-08-18T14:49:28.158Z,97395.81
2022-08-18T14:54:34.761Z,97396.38
2022-08-18T14:59:38.053Z,97396.00
2022-08-18T15:04:52.953Z,97387.84
2022-08-18T15:10:15.694Z,97394.31
2022-08-18T15:15:22.577Z,97387.06
2022-08-18T15:20:29.558Z,97391.00
2022-08-18T15:25:51.126Z,97397.84
2022-08-18T15:36:21.509Z,97404.25
2022-08-18T15:41:43.974Z,97388.16
2022-08-18T15:46:53.032Z,97385.50
2022-08-18T15:51:56.500Z,97371.31
2022-08-18T15:56:59.363Z,97376.94
2022-08-18T16:02:02.358Z,97370.06
2022-08-18T16:07:05.815Z,97359.78
2022-08-18T16:12:11.159Z,97361.44
2022-08-18T16:17:23.673Z,97363.09
2022-08-18T16:22:26.646Z,97373.16
2022-08-18T16:27:29.830Z,97366.69
2022-08-18T16:32:32.725Z,97376.81
2022-08-18T16:37:35.384Z,97381.66
2022-08-18T16:42:37.903Z,97388.22
2022-08-18T16:47:41.439Z,97382.72
2022-08-18T16:52:44.049Z,97384.03
2022-08-18T16:58:05.128Z,97383.59
2022-08-18T17:03:27.068Z,97385.16
2022-08-18T17:08:31.362Z,97379.41
2022-08-18T17:13:34.488Z,97385.78
2022-08-18T17:18:37.784Z,97384.53
2022-08-18T17:23:41.083Z,97379.56
2022-08-18T17:28:55.956Z,97384.59
2022-08-18T17:34:07.136Z,97383.41
2022-08-18T17:39:16.162Z,97391.19
2022-08-18T17:44:19.289Z,97392.38
2022-08-18T17:49:54.235Z,97395.69
2022-08-18T17:55:32.709Z,97397.94
2022-08-18T18:00:36.071Z,97400.38
2022-08-18T18:05:45.184Z,97401.25
2022-08-18T18:11:04.774Z,97413.50
2022-08-18T18:16:24.770Z,97407.13
2022-08-18T18:22:00.119Z,97409.00
2022-08-18T18:26:51.140Z,97422.06
2022-08-18T18:32:01.822Z,97419.63
2022-08-18T18:37:29.429Z,97433.13
2022-08-18T18:42:34.633Z,97430.13
2022-08-18T18:47:54.477Z,97446.28
2022-08-18T18:53:05.936Z,97451.41
2022-08-18T18:58:37.241Z,97450.31
2022-08-18T19:03:42.429Z,97448.44
2022-08-18T19:08:50.792Z,97442.53
2022-08-18T19:14:00.744Z,97458.69
2022-08-18T19:19:38.465Z,97458.69
2022-08-18T19:25:00.517Z,97455.91
2022-08-18T19:30:09.342Z,97463.78
2022-08-18T19:35:18.996Z,97458.22
2022-08-18T19:40:29.115Z,97456.53
2022-08-18T19:46:10.589Z,97465.31
2022-08-18T19:51:26.430Z,97468.72
2022-08-18T19:56:56.450Z,97478.56
2022-08-18T20:02:29.165Z,97480.28
2022-08-18T20:07:55.858Z,97492.91
2022-08-18T20:13:08.180Z,97486.81
2022-08-18T20:18:29.781Z,97486.19
2022-08-18T20:23:55.191Z,97494.25
2022-08-18T20:28:57.681Z,97495.34
2022-08-18T20:34:14.171Z,97509.47
2022-08-18T20:39:46.847Z,97496.41
2022-08-18T20:44:49.676Z,97491.16
2022-08-18T20:50:04.521Z,97492.34
2022-08-18T20:55:26.995Z,97484.50
2022-08-18T21:00:36.283Z,97491.25
2022-08-18T21:05:41.846Z,97496.31
2022-08-18T21:10:54.868Z,97503.69
2022-08-18T21:15:58.261Z,97500.06
2022-08-18T21:21:01.600Z,97505.13
2022-08-18T21:26:07.845Z,97528.81
2022-08-18T21:31:29.113Z,97518.00
2022-08-18T21:36:53.665Z,97515.13
2022-08-18T21:41:58.338Z,97512.75
2022-08-18T21:47:10.126Z,97525.19
2022-08-18T21:52:24.301Z,97547.00
2022-08-18T21:57:46.387Z,97546.94
2022-08-18T22:02:51.794Z,97547.53
2022-08-18T22:07:54.711Z,97544.00
2022-08-18T22:13:16.892Z,97562.00
2022-08-18T22:18:28.737Z,97542.06
2022-08-18T22:24:04.102Z,97550.88
2022-08-18T22:29:07.416Z,97535.22
2022-08-18T22:34:17.543Z,97541.22
2022-08-18T22:39:37.474Z,97536.72
2022-08-18T22:44:42.153Z,97542.28
2022-08-18T22:49:45.389Z,97547.75
2022-08-18T22:54:49.550Z,97556.00
2022-08-18T22:59:54.460Z,97556.31
2022-08-18T23:05:01.791Z,97557.50
2022-08-18T23:10:08.314Z,97570.47
2022-08-18T23:15:18.213Z,97571.56
2022-08-18T23:20:20.933Z,97572.25
2022-08-18T23:25:29.167Z,97567.97
2022-08-18T23:30:31.589Z,97561.78
2022-08-18T23:35:34.697Z,97561.34
2022-08-18T23:40:37.959Z,97567.09
2022-08-18T23:45:45.859Z,97562.00
2022-08-18T23:50:50.519Z,97547.97
2022-08-18T23:55:53.143Z,97547.66
